sensor_id;sensor_type;location;lat;lon;timestamp;temperature;humidity
79140;HTU21D;68546;59.142;37.948;2023-04-25T00:01:38;14.44;38.72
79140;HTU21D;68546;59.142;37.948;2023-04-25T00:04:04;14.42;38.74
79140;HTU21D;68546;59.142;37.948;2023-04-25T00:06:37;14.38;38.82
79140;HTU21D;68546;59.142;37.948;2023-04-25T00:09:05;14.36;38.93
79140;HTU21D;68546;59.142;37.948;2023-04-25T00:11:33;14.35;38.92
79140;HTU21D;68546;59.142;37.948;2023-04-25T00:14:00;14.33;38.99
79140;HTU21D;68546;59.142;37.948;2023-04-25T00:16:29;14.30;39.07
79140;HTU21D;68546;59.142;37.948;2023-04-25T00:18:59;14.26;39.09
79140;HTU21D;68546;59.142;37.948;2023-04-25T00:21:26;14.24;39.19
79140;HTU21D;68546;59.142;37.948;2023-04-25T00:23:53;14.22;39.21
79140;HTU21D;68546;59.142;37.948;2023-04-25T00:26:19;14.19;39.26
79140;HTU21D;68546;59.142;37.948;2023-04-25T00:28:47;14.15;39.34
79140;HTU21D;68546;59.142;37.948;2023-04-25T00:31:14;14.13;39.40
79140;HTU21D;68546;59.142;37.948;2023-04-25T00:33:41;14.11;39.53
79140;HTU21D;68546;59.142;37.948;2023-04-25T00:36:08;14.08;39.59
79140;HTU21D;68546;59.142;37.948;2023-04-25T00:38:34;14.08;39.62
79140;HTU21D;68546;59.142;37.948;2023-04-25T00:41:01;14.06;39.65
79140;HTU21D;68546;59.142;37.948;2023-04-25T00:43:30;14.04;39.75
79140;HTU21D;68546;59.142;37.948;2023-04-25T00:46:00;14.03;39.78
79140;HTU21D;68546;59.142;37.948;2023-04-25T00:48:26;13.98;39.81
79140;HTU21D;68546;59.142;37.948;2023-04-25T00:50:55;13.96;39.96
79140;HTU21D;68546;59.142;37.948;2023-04-25T00:53:26;13.93;40.00
79140;HTU21D;68546;59.142;37.948;2023-04-25T00:55:53;13.91;40.05
79140;HTU21D;68546;59.142;37.948;2023-04-25T00:58:21;13.89;40.18
79140;HTU21D;68546;59.142;37.948;2023-04-25T01:00:49;13.86;40.26
79140;HTU21D;68546;59.142;37.948;2023-04-25T01:03:16;13.83;40.32
79140;HTU21D;68546;59.142;37.948;2023-04-25T01:05:51;13.80;40.37
79140;HTU21D;68546;59.142;37.948;2023-04-25T01:08:18;13.78;40.48
79140;HTU21D;68546;59.142;37.948;2023-04-25T01:10:44;13.76;40.55
79140;HTU21D;68546;59.142;37.948;2023-04-25T01:13:10;13.74;40.66
79140;HTU21D;68546;59.142;37.948;2023-04-25T01:15:37;13.73;40.75
79140;HTU21D;68546;59.142;37.948;2023-04-25T01:18:06;13.70;40.84
79140;HTU21D;68546;59.142;37.948;2023-04-25T01:20:33;13.69;40.86
79140;HTU21D;68546;59.142;37.948;2023-04-25T01:23:00;13.68;40.84
79140;HTU21D;68546;59.142;37.948;2023-04-25T01:25:30;13.66;40.86
79140;HTU21D;68546;59.142;37.948;2023-04-25T01:27:57;13.63;40.93
79140;HTU21D;68546;59.142;37.948;2023-04-25T01:30:28;13.64;41.02
79140;HTU21D;68546;59.142;37.948;2023-04-25T01:32:56;13.62;41.01
79140;HTU21D;68546;59.142;37.948;2023-04-25T01:35:23;13.61;41.04
79140;HTU21D;68546;59.142;37.948;2023-04-25T01:37:53;13.60;41.12
79140;HTU21D;68546;59.142;37.948;2023-04-25T01:40:21;13.61;41.21
79140;HTU21D;68546;59.142;37.948;2023-04-25T01:42:48;13.61;41.23
79140;HTU21D;68546;59.142;37.948;2023-04-25T01:45:15;13.62;41.31
79140;HTU21D;68546;59.142;37.948;2023-04-25T01:47:42;13.63;41.39
79140;HTU21D;68546;59.142;37.948;2023-04-25T01:50:13;13.65;41.39
79140;HTU21D;68546;59.142;37.948;2023-04-25T01:52:40;13.66;41.39
79140;HTU21D;68546;59.142;37.948;2023-04-25T01:55:08;13.69;41.52
79140;HTU21D;68546;59.142;37.948;2023-04-25T01:57:37;13.74;41.45
79140;HTU21D;68546;59.142;37.948;2023-04-25T02:00:05;13.76;41.45
79140;HTU21D;68546;59.142;37.948;2023-04-25T02:02:38;13.78;41.45
79140;HTU21D;68546;59.142;37.948;2023-04-25T02:05:08;13.82;41.45
79140;HTU21D;68546;59.142;37.948;2023-04-25T02:07:38;13.83;41.54
79140;HTU21D;68546;59.142;37.948;2023-04-25T02:10:04;13.86;41.62
79140;HTU21D;68546;59.142;37.948;2023-04-25T02:12:38;13.89;41.58
79140;HTU21D;68546;59.142;37.948;2023-04-25T02:15:19;13.93;41.56
79140;HTU21D;68546;59.142;37.948;2023-04-25T02:17:56;13.96;41.54
79140;HTU21D;68546;59.142;37.948;2023-04-25T02:20:23;14.00;41.51
79140;HTU21D;68546;59.142;37.948;2023-04-25T02:22:50;14.04;41.58
79140;HTU21D;68546;59.142;37.948;2023-04-25T02:25:17;14.07;41.57
79140;HTU21D;68546;59.142;37.948;2023-04-25T02:27:47;14.11;41.57
79140;HTU21D;68546;59.142;37.948;2023-04-25T02:30:14;14.15;41.56
79140;HTU21D;68546;59.142;37.948;2023-04-25T02:32:40;14.20;41.57
79140;HTU21D;68546;59.142;37.948;2023-04-25T02:35:09;14.23;41.45
79140;HTU21D;68546;59.142;37.948;2023-04-25T02:37:37;14.26;41.39
79140;HTU21D;68546;59.142;37.948;2023-04-25T02:40:04;14.30;41.31
79140;HTU21D;68546;59.142;37.948;2023-04-25T02:42:31;14.34;41.25
79140;HTU21D;68546;59.142;37.948;2023-04-25T02:44:58;14.36;41.07
79140;HTU21D;68546;59.142;37.948;2023-04-25T02:47:24;14.39;40.96
79140;HTU21D;68546;59.142;37.948;2023-04-25T02:49:51;14.41;40.94
79140;HTU21D;68546;59.142;37.948;2023-04-25T02:52:17;14.42;40.89
79140;HTU21D;68546;59.142;37.948;2023-04-25T02:54:48;14.44;40.84
79140;HTU21D;68546;59.142;37.948;2023-04-25T02:57:14;14.47;40.81
79140;HTU21D;68546;59.142;37.948;2023-04-25T02:59:40;14.50;40.84
79140;HTU21D;68546;59.142;37.948;2023-04-25T03:02:07;14.52;40.82
79140;HTU21D;68546;59.142;37.948;2023-04-25T03:04:33;14.55;40.84
79140;HTU21D;68546;59.142;37.948;2023-04-25T03:06:59;14.59;40.81
79140;HTU21D;68546;59.142;37.948;2023-04-25T03:09:27;14.62;40.78
79140;HTU21D;68546;59.142;37.948;2023-04-25T03:11:54;14.63;40.73
79140;HTU21D;68546;59.142;37.948;2023-04-25T03:14:20;14.66;40.71
79140;HTU21D;68546;59.142;37.948;2023-04-25T03:16:47;14.69;40.68
79140;HTU21D;68546;59.142;37.948;2023-04-25T03:19:13;14.71;40.71
79140;HTU21D;68546;59.142;37.948;2023-04-25T03:21:42;14.72;40.67
79140;HTU21D;68546;59.142;37.948;2023-04-25T03:24:08;14.74;40.67
79140;HTU21D;68546;59.142;37.948;2023-04-25T03:26:35;14.77;40.65
79140;HTU21D;68546;59.142;37.948;2023-04-25T03:29:01;14.79;40.63
79140;HTU21D;68546;59.142;37.948;2023-04-25T03:31:28;14.80;40.60
79140;HTU21D;68546;59.142;37.948;2023-04-25T03:33:54;14.82;40.59
79140;HTU21D;68546;59.142;37.948;2023-04-25T03:36:23;14.84;40.62
79140;HTU21D;68546;59.142;37.948;2023-04-25T03:38:49;14.86;40.65
79140;HTU21D;68546;59.142;37.948;2023-04-25T03:41:17;14.88;40.62
79140;HTU21D;68546;59.142;37.948;2023-04-25T03:43:47;14.91;40.59
79140;HTU21D;68546;59.142;37.948;2023-04-25T03:46:15;14.93;40.65
79140;HTU21D;68546;59.142;37.948;2023-04-25T03:48:42;14.96;40.66
79140;HTU21D;68546;59.142;37.948;2023-04-25T03:51:11;14.97;40.60
79140;HTU21D;68546;59.142;37.948;2023-04-25T03:53:43;15.00;40.59
79140;HTU21D;68546;59.142;37.948;2023-04-25T03:56:41;15.03;40.56
79140;HTU21D;68546;59.142;37.948;2023-04-25T03:59:17;15.06;40.45
79140;HTU21D;68546;59.142;37.948;2023-04-25T04:01:45;15.09;40.42
79140;HTU21D;68546;59.142;37.948;2023-04-25T04:04:12;15.12;40.33
79140;HTU21D;68546;59.142;37.948;2023-04-25T04:06:38;15.15;40.24
79140;HTU21D;68546;59.142;37.948;2023-04-25T04:09:16;15.18;40.20
79140;HTU21D;68546;59.142;37.948;2023-04-25T04:11:45;15.21;40.17
79140;HTU21D;68546;59.142;37.948;2023-04-25T04:14:12;15.25;40.10
79140;HTU21D;68546;59.142;37.948;2023-04-25T04:16:44;15.28;40.06
79140;HTU21D;68546;59.142;37.948;2023-04-25T04:19:11;15.30;40.02
79140;HTU21D;68546;59.142;37.948;2023-04-25T04:21:40;15.36;40.02
79140;HTU21D;68546;59.142;37.948;2023-04-25T04:24:09;15.40;40.03
79140;HTU21D;68546;59.142;37.948;2023-04-25T04:26:50;15.48;40.04
79140;HTU21D;68546;59.142;37.948;2023-04-25T04:29:39;15.60;40.00
79140;HTU21D;68546;59.142;37.948;2023-04-25T04:32:26;15.74;39.88
79140;HTU21D;68546;59.142;37.948;2023-04-25T04:34:56;15.83;39.81
79140;HTU21D;68546;59.142;37.948;2023-04-25T04:37:24;15.96;39.71
79140;HTU21D;68546;59.142;37.948;2023-04-25T04:39:50;16.06;39.60
79140;HTU21D;68546;59.142;37.948;2023-04-25T04:42:35;16.17;39.43
79140;HTU21D;68546;59.142;37.948;2023-04-25T04:45:34;16.27;39.16
79140;HTU21D;68546;59.142;37.948;2023-04-25T04:48:20;16.35;39.04
79140;HTU21D;68546;59.142;37.948;2023-04-25T04:51:16;16.42;38.87
79140;HTU21D;68546;59.142;37.948;2023-04-25T04:54:10;16.51;38.72
79140;HTU21D;68546;59.142;37.948;2023-04-25T04:57:00;16.58;38.58
79140;HTU21D;68546;59.142;37.948;2023-04-25T04:59:45;16.64;38.49
79140;HTU21D;68546;59.142;37.948;2023-04-25T05:02:30;16.71;38.36
79140;HTU21D;68546;59.142;37.948;2023-04-25T05:05:15;16.76;38.25
79140;HTU21D;68546;59.142;37.948;2023-04-25T05:08:04;16.81;38.13
79140;HTU21D;68546;59.142;37.948;2023-04-25T05:10:50;16.87;38.07
79140;HTU21D;68546;59.142;37.948;2023-04-25T05:13:33;16.94;37.98
79140;HTU21D;68546;59.142;37.948;2023-04-25T05:16:12;17.02;37.87
79140;HTU21D;68546;59.142;37.948;2023-04-25T05:18:52;17.10;37.66
79140;HTU21D;68546;59.142;37.948;2023-04-25T05:21:42;17.18;37.56
79140;HTU21D;68546;59.142;37.948;2023-04-25T05:24:29;17.26;37.30
79140;HTU21D;68546;59.142;37.948;2023-04-25T05:27:25;17.35;37.30
79140;HTU21D;68546;59.142;37.948;2023-04-25T05:30:00;17.43;37.14
79140;HTU21D;68546;59.142;37.948;2023-04-25T05:32:35;17.49;36.94
79140;HTU21D;68546;59.142;37.948;2023-04-25T05:35:03;17.56;36.79
79140;HTU21D;68546;59.142;37.948;2023-04-25T05:37:35;17.61;36.71
79140;HTU21D;68546;59.142;37.948;2023-04-25T05:40:10;17.68;36.66
79140;HTU21D;68546;59.142;37.948;2023-04-25T05:42:42;17.77;36.50
79140;HTU21D;68546;59.142;37.948;2023-04-25T05:45:37;17.87;36.36
79140;HTU21D;68546;59.142;37.948;2023-04-25T05:48:04;17.92;36.22
79140;HTU21D;68546;59.142;37.948;2023-04-25T05:51:02;18.00;36.08
79140;HTU21D;68546;59.142;37.948;2023-04-25T05:53:49;18.08;36.04
79140;HTU21D;68546;59.142;37.948;2023-04-25T05:56:16;18.17;35.90
79140;HTU21D;68546;59.142;37.948;2023-04-25T05:58:42;18.24;35.85
79140;HTU21D;68546;59.142;37.948;2023-04-25T06:01:11;18.34;35.75
79140;HTU21D;68546;59.142;37.948;2023-04-25T06:03:38;18.42;35.66
79140;HTU21D;68546;59.142;37.948;2023-04-25T06:06:05;18.52;35.57
79140;HTU21D;68546;59.142;37.948;2023-04-25T06:08:31;18.62;35.43
79140;HTU21D;68546;59.142;37.948;2023-04-25T06:10:58;18.70;35.34
79140;HTU21D;68546;59.142;37.948;2023-04-25T06:13:24;18.79;35.25
79140;HTU21D;68546;59.142;37.948;2023-04-25T06:15:52;18.86;35.05
79140;HTU21D;68546;59.142;37.948;2023-04-25T06:18:19;18.95;35.04
79140;HTU21D;68546;59.142;37.948;2023-04-25T06:20:45;19.01;34.80
79140;HTU21D;68546;59.142;37.948;2023-04-25T06:23:12;19.12;34.71
79140;HTU21D;68546;59.142;37.948;2023-04-25T06:26:04;19.20;34.61
79140;HTU21D;68546;59.142;37.948;2023-04-25T06:28:32;19.28;34.60
79140;HTU21D;68546;59.142;37.948;2023-04-25T06:31:00;19.38;34.50
79140;HTU21D;68546;59.142;37.948;2023-04-25T06:33:26;19.46;34.30
79140;HTU21D;68546;59.142;37.948;2023-04-25T06:35:56;19.55;34.20
79140;HTU21D;68546;59.142;37.948;2023-04-25T06:38:26;19.63;34.04
79140;HTU21D;68546;59.142;37.948;2023-04-25T06:40:54;19.73;33.83
79140;HTU21D;68546;59.142;37.948;2023-04-25T06:43:21;19.83;33.70
79140;HTU21D;68546;59.142;37.948;2023-04-25T06:45:47;19.92;33.54
79140;HTU21D;68546;59.142;37.948;2023-04-25T06:48:14;20.00;33.38
79140;HTU21D;68546;59.142;37.948;2023-04-25T06:50:40;20.09;33.15
79140;HTU21D;68546;59.142;37.948;2023-04-25T06:53:06;20.16;33.06
79140;HTU21D;68546;59.142;37.948;2023-04-25T06:55:36;20.21;32.94
79140;HTU21D;68546;59.142;37.948;2023-04-25T06:58:31;20.28;32.80
79140;HTU21D;68546;59.142;37.948;2023-04-25T07:01:21;20.32;32.67
79140;HTU21D;68546;59.142;37.948;2023-04-25T07:03:47;20.37;32.55
79140;HTU21D;68546;59.142;37.948;2023-04-25T07:06:17;20.42;32.45
79140;HTU21D;68546;59.142;37.948;2023-04-25T07:08:44;20.46;32.25
79140;HTU21D;68546;59.142;37.948;2023-04-25T07:11:12;20.53;32.21
79140;HTU21D;68546;59.142;37.948;2023-04-25T07:13:40;20.61;32.12
79140;HTU21D;68546;59.142;37.948;2023-04-25T07:16:07;20.68;31.90
79140;HTU21D;68546;59.142;37.948;2023-04-25T07:18:36;20.75;31.78
79140;HTU21D;68546;59.142;37.948;2023-04-25T07:21:03;20.81;31.64
79140;HTU21D;68546;59.142;37.948;2023-04-25T07:23:32;20.89;31.41
79140;HTU21D;68546;59.142;37.948;2023-04-25T07:26:01;20.95;31.36
79140;HTU21D;68546;59.142;37.948;2023-04-25T07:28:29;21.04;31.14
79140;HTU21D;68546;59.142;37.948;2023-04-25T07:30:56;21.10;30.97
79140;HTU21D;68546;59.142;37.948;2023-04-25T07:33:25;21.18;30.83
79140;HTU21D;68546;59.142;37.948;2023-04-25T07:35:52;21.24;30.53
79140;HTU21D;68546;59.142;37.948;2023-04-25T07:38:20;21.30;30.38
79140;HTU21D;68546;59.142;37.948;2023-04-25T07:40:50;21.32;29.78
79140;HTU21D;68546;59.142;37.948;2023-04-25T07:43:17;21.29;29.38
79140;HTU21D;68546;59.142;37.948;2023-04-25T07:45:57;21.24;29.16
79140;HTU21D;68546;59.142;37.948;2023-04-25T07:48:27;21.20;28.84
79140;HTU21D;68546;59.142;37.948;2023-04-25T07:50:54;21.16;28.79
79140;HTU21D;68546;59.142;37.948;2023-04-25T07:53:21;21.11;28.69
79140;HTU21D;68546;59.142;37.948;2023-04-25T07:55:55;21.07;28.79
79140;HTU21D;68546;59.142;37.948;2023-04-25T07:58:22;21.06;28.86
79140;HTU21D;68546;59.142;37.948;2023-04-25T08:00:54;21.05;28.81
79140;HTU21D;68546;59.142;37.948;2023-04-25T08:03:46;21.05;28.95
79140;HTU21D;68546;59.142;37.948;2023-04-25T08:06:20;21.08;28.87
79140;HTU21D;68546;59.142;37.948;2023-04-25T08:09:02;21.09;28.67
79140;HTU21D;68546;59.142;37.948;2023-04-25T08:11:38;21.10;28.50
79140;HTU21D;68546;59.142;37.948;2023-04-25T08:14:07;21.13;28.31
79140;HTU21D;68546;59.142;37.948;2023-04-25T08:16:34;21.13;28.16
79140;HTU21D;68546;59.142;37.948;2023-04-25T08:19:03;21.15;28.03
79140;HTU21D;68546;59.142;37.948;2023-04-25T08:21:31;21.18;27.88
79140;HTU21D;68546;59.142;37.948;2023-04-25T08:24:03;21.18;27.74
79140;HTU21D;68546;59.142;37.948;2023-04-25T08:26:35;21.18;27.61
79140;HTU21D;68546;59.142;37.948;2023-04-25T08:29:04;21.19;27.39
79140;HTU21D;68546;59.142;37.948;2023-04-25T08:31:32;21.17;27.32
79140;HTU21D;68546;59.142;37.948;2023-04-25T08:34:03;21.14;27.21
79140;HTU21D;68546;59.142;37.948;2023-04-25T08:36:55;21.14;27.17
79140;HTU21D;68546;59.142;37.948;2023-04-25T08:39:46;21.11;27.23
79140;HTU21D;68546;59.142;37.948;2023-04-25T08:42:21;21.10;27.11
79140;HTU21D;68546;59.142;37.948;2023-04-25T08:44:53;21.13;27.08
79140;HTU21D;68546;59.142;37.948;2023-04-25T08:47:22;21.15;26.94
79140;HTU21D;68546;59.142;37.948;2023-04-25T08:49:54;21.19;27.00
79140;HTU21D;68546;59.142;37.948;2023-04-25T08:52:23;21.25;27.04
79140;HTU21D;68546;59.142;37.948;2023-04-25T08:54:52;21.34;26.86
79140;HTU21D;68546;59.142;37.948;2023-04-25T08:57:21;21.46;26.98
79140;HTU21D;68546;59.142;37.948;2023-04-25T08:59:48;21.61;26.57
79140;HTU21D;68546;59.142;37.948;2023-04-25T09:02:15;21.78;26.33
79140;HTU21D;68546;59.142;37.948;2023-04-25T09:04:48;21.95;26.07
79140;HTU21D;68546;59.142;37.948;2023-04-25T09:07:14;22.10;25.80
79140;HTU21D;68546;59.142;37.948;2023-04-25T09:09:45;22.22;25.62
79140;HTU21D;68546;59.142;37.948;2023-04-25T09:12:18;22.33;25.17
79140;HTU21D;68546;59.142;37.948;2023-04-25T09:15:06;22.41;25.18
79140;HTU21D;68546;59.142;37.948;2023-04-25T09:18:06;22.44;24.79
79140;HTU21D;68546;59.142;37.948;2023-04-25T09:20:42;22.47;24.69
79140;HTU21D;68546;59.142;37.948;2023-04-25T09:23:11;22.48;24.67
79140;HTU21D;68546;59.142;37.948;2023-04-25T09:25:38;22.50;24.76
79140;HTU21D;68546;59.142;37.948;2023-04-25T09:28:11;22.53;24.69
79140;HTU21D;68546;59.142;37.948;2023-04-25T09:30:37;22.56;24.73
79140;HTU21D;68546;59.142;37.948;2023-04-25T09:33:11;22.63;24.71
79140;HTU21D;68546;59.142;37.948;2023-04-25T09:35:42;22.69;24.72
79140;HTU21D;68546;59.142;37.948;2023-04-25T09:38:15;22.78;24.69
79140;HTU21D;68546;59.142;37.948;2023-04-25T09:40:55;22.83;24.72
79140;HTU21D;68546;59.142;37.948;2023-04-25T09:43:57;22.92;24.71
79140;HTU21D;68546;59.142;37.948;2023-04-25T09:46:34;22.98;24.78
79140;HTU21D;68546;59.142;37.948;2023-04-25T09:49:07;23.03;24.74
79140;HTU21D;68546;59.142;37.948;2023-04-25T09:51:55;23.10;24.81
79140;HTU21D;68546;59.142;37.948;2023-04-25T09:54:27;23.13;24.75
79140;HTU21D;68546;59.142;37.948;2023-04-25T09:57:12;23.17;24.73
79140;HTU21D;68546;59.142;37.948;2023-04-25T09:59:43;23.17;24.76
79140;HTU21D;68546;59.142;37.948;2023-04-25T10:02:11;23.20;24.77
79140;HTU21D;68546;59.142;37.948;2023-04-25T10:04:41;23.20;24.84
79140;HTU21D;68546;59.142;37.948;2023-04-25T10:07:30;23.21;24.76
79140;HTU21D;68546;59.142;37.948;2023-04-25T10:10:03;23.21;24.96
79140;HTU21D;68546;59.142;37.948;2023-04-25T10:12:33;23.23;25.01
79140;HTU21D;68546;59.142;37.948;2023-04-25T10:15:02;23.24;25.04
79140;HTU21D;68546;59.142;37.948;2023-04-25T10:17:29;23.30;25.08
79140;HTU21D;68546;59.142;37.948;2023-04-25T10:19:56;23.37;25.08
79140;HTU21D;68546;59.142;37.948;2023-04-25T10:22:37;23.42;24.94
79140;HTU21D;68546;59.142;37.948;2023-04-25T10:25:06;23.45;24.87
79140;HTU21D;68546;59.142;37.948;2023-04-25T10:27:36;23.52;24.75
79140;HTU21D;68546;59.142;37.948;2023-04-25T10:30:14;23.56;24.79
79140;HTU21D;68546;59.142;37.948;2023-04-25T10:32:43;23.64;24.72
79140;HTU21D;68546;59.142;37.948;2023-04-25T10:35:13;23.71;24.70
79140;HTU21D;68546;59.142;37.948;2023-04-25T10:38:16;23.81;24.78
79140;HTU21D;68546;59.142;37.948;2023-04-25T10:41:02;23.87;24.65
79140;HTU21D;68546;59.142;37.948;2023-04-25T10:43:44;23.92;24.49
79140;HTU21D;68546;59.142;37.948;2023-04-25T10:46:17;23.96;24.36
79140;HTU21D;68546;59.142;37.948;2023-04-25T10:48:55;23.98;24.27
79140;HTU21D;68546;59.142;37.948;2023-04-25T10:51:23;24.02;24.20
79140;HTU21D;68546;59.142;37.948;2023-04-25T10:54:00;24.05;24.21
79140;HTU21D;68546;59.142;37.948;2023-04-25T10:56:33;24.09;24.06
79140;HTU21D;68546;59.142;37.948;2023-04-25T10:59:05;24.11;23.98
79140;HTU21D;68546;59.142;37.948;2023-04-25T11:01:44;24.12;23.95
79140;HTU21D;68546;59.142;37.948;2023-04-25T11:04:27;24.11;23.95
79140;HTU21D;68546;59.142;37.948;2023-04-25T11:07:20;24.05;24.01
79140;HTU21D;68546;59.142;37.948;2023-04-25T11:09:49;24.00;24.06
79140;HTU21D;68546;59.142;37.948;2023-04-25T11:12:17;23.92;23.96
79140;HTU21D;68546;59.142;37.948;2023-04-25T11:14:43;23.83;23.96
79140;HTU21D;68546;59.142;37.948;2023-04-25T11:17:10;23.75;24.00
79140;HTU21D;68546;59.142;37.948;2023-04-25T11:19:37;23.68;24.10
79140;HTU21D;68546;59.142;37.948;2023-04-25T11:22:03;23.65;24.05
79140;HTU21D;68546;59.142;37.948;2023-04-25T11:24:34;23.60;23.93
79140;HTU21D;68546;59.142;37.948;2023-04-25T11:27:02;23.57;23.98
79140;HTU21D;68546;59.142;37.948;2023-04-25T11:29:33;23.55;24.05
79140;HTU21D;68546;59.142;37.948;2023-04-25T11:32:00;23.55;24.17
79140;HTU21D;68546;59.142;37.948;2023-04-25T11:34:29;23.57;24.32
79140;HTU21D;68546;59.142;37.948;2023-04-25T11:36:59;23.58;24.31
79140;HTU21D;68546;59.142;37.948;2023-04-25T11:39:27;23.57;24.33
79140;HTU21D;68546;59.142;37.948;2023-04-25T11:41:54;23.58;24.27
79140;HTU21D;68546;59.142;37.948;2023-04-25T11:44:21;23.58;24.11
79140;HTU21D;68546;59.142;37.948;2023-04-25T11:46:48;23.59;23.97
79140;HTU21D;68546;59.142;37.948;2023-04-25T11:49:15;23.61;23.97
79140;HTU21D;68546;59.142;37.948;2023-04-25T11:51:47;23.67;23.98
79140;HTU21D;68546;59.142;37.948;2023-04-25T11:54:14;23.74;23.88
79140;HTU21D;68546;59.142;37.948;2023-04-25T11:56:45;23.84;23.88
79140;HTU21D;68546;59.142;37.948;2023-04-25T11:59:12;23.95;23.81
79140;HTU21D;68546;59.142;37.948;2023-04-25T12:01:48;24.06;23.65
79140;HTU21D;68546;59.142;37.948;2023-04-25T12:04:21;24.17;23.34
79140;HTU21D;68546;59.142;37.948;2023-04-25T12:06:50;24.19;23.01
79140;HTU21D;68546;59.142;37.948;2023-04-25T12:09:27;24.21;22.45
79140;HTU21D;68546;59.142;37.948;2023-04-25T12:12:00;24.20;22.32
79140;HTU21D;68546;59.142;37.948;2023-04-25T12:14:33;24.20;22.22
79140;HTU21D;68546;59.142;37.948;2023-04-25T12:17:02;24.17;22.15
79140;HTU21D;68546;59.142;37.948;2023-04-25T12:19:37;24.15;22.16
79140;HTU21D;68546;59.142;37.948;2023-04-25T12:22:23;24.12;22.32
79140;HTU21D;68546;59.142;37.948;2023-04-25T12:24:53;24.09;22.09
79140;HTU21D;68546;59.142;37.948;2023-04-25T12:27:20;24.03;22.15
79140;HTU21D;68546;59.142;37.948;2023-04-25T12:29:54;23.98;22.14
79140;HTU21D;68546;59.142;37.948;2023-04-25T12:32:21;23.90;22.14
79140;HTU21D;68546;59.142;37.948;2023-04-25T12:34:48;23.87;22.18
79140;HTU21D;68546;59.142;37.948;2023-04-25T12:37:14;23.85;22.12
79140;HTU21D;68546;59.142;37.948;2023-04-25T12:39:41;23.83;22.21
79140;HTU21D;68546;59.142;37.948;2023-04-25T12:42:08;23.82;22.11
79140;HTU21D;68546;59.142;37.948;2023-04-25T12:44:38;23.79;21.98
79140;HTU21D;68546;59.142;37.948;2023-04-25T12:47:05;23.76;21.99
79140;HTU21D;68546;59.142;37.948;2023-04-25T12:49:32;23.74;21.79
79140;HTU21D;68546;59.142;37.948;2023-04-25T12:51:59;23.72;21.80
79140;HTU21D;68546;59.142;37.948;2023-04-25T12:54:27;23.71;21.69
79140;HTU21D;68546;59.142;37.948;2023-04-25T12:56:54;23.68;21.60
79140;HTU21D;68546;59.142;37.948;2023-04-25T12:59:22;23.66;21.53
79140;HTU21D;68546;59.142;37.948;2023-04-25T13:01:49;23.64;21.35
79140;HTU21D;68546;59.142;37.948;2023-04-25T13:04:15;23.60;21.31
79140;HTU21D;68546;59.142;37.948;2023-04-25T13:06:43;23.57;21.40
79140;HTU21D;68546;59.142;37.948;2023-04-25T13:09:10;23.54;21.47
79140;HTU21D;68546;59.142;37.948;2023-04-25T13:11:40;23.52;21.48
79140;HTU21D;68546;59.142;37.948;2023-04-25T13:14:08;23.50;21.48
79140;HTU21D;68546;59.142;37.948;2023-04-25T13:16:35;23.46;21.47
79140;HTU21D;68546;59.142;37.948;2023-04-25T13:19:03;23.43;21.64
79140;HTU21D;68546;59.142;37.948;2023-04-25T13:21:32;23.41;21.60
79140;HTU21D;68546;59.142;37.948;2023-04-25T13:23:58;23.38;21.60
79140;HTU21D;68546;59.142;37.948;2023-04-25T13:26:25;23.37;21.63
79140;HTU21D;68546;59.142;37.948;2023-04-25T13:28:52;23.37;21.70
79140;HTU21D;68546;59.142;37.948;2023-04-25T13:31:19;23.36;21.59
79140;HTU21D;68546;59.142;37.948;2023-04-25T13:33:49;23.34;21.54
79140;HTU21D;68546;59.142;37.948;2023-04-25T13:36:16;23.34;21.63
79140;HTU21D;68546;59.142;37.948;2023-04-25T13:38:43;23.35;21.42
79140;HTU21D;68546;59.142;37.948;2023-04-25T13:41:12;23.36;21.47
79140;HTU21D;68546;59.142;37.948;2023-04-25T13:43:45;23.38;21.40
79140;HTU21D;68546;59.142;37.948;2023-04-25T13:46:13;23.39;21.40
79140;HTU21D;68546;59.142;37.948;2023-04-25T13:48:42;23.37;21.18
79140;HTU21D;68546;59.142;37.948;2023-04-25T13:51:13;23.34;21.26
79140;HTU21D;68546;59.142;37.948;2023-04-25T13:53:39;23.29;21.14
79140;HTU21D;68546;59.142;37.948;2023-04-25T13:56:06;23.24;21.05
79140;HTU21D;68546;59.142;37.948;2023-04-25T13:58:32;23.18;21.11
79140;HTU21D;68546;59.142;37.948;2023-04-25T14:01:00;23.13;21.20
79140;HTU21D;68546;59.142;37.948;2023-04-25T14:03:27;23.07;21.11
79140;HTU21D;68546;59.142;37.948;2023-04-25T14:05:54;23.02;20.97
79140;HTU21D;68546;59.142;37.948;2023-04-25T14:08:24;22.98;21.01
79140;HTU21D;68546;59.142;37.948;2023-04-25T14:10:51;22.93;20.86
79140;HTU21D;68546;59.142;37.948;2023-04-25T14:13:18;22.90;20.83
79140;HTU21D;68546;59.142;37.948;2023-04-25T14:15:45;22.84;20.71
79140;HTU21D;68546;59.142;37.948;2023-04-25T14:18:13;22.82;20.41
79140;HTU21D;68546;59.142;37.948;2023-04-25T14:20:39;22.79;20.31
79140;HTU21D;68546;59.142;37.948;2023-04-25T14:23:07;22.76;20.12
79140;HTU21D;68546;59.142;37.948;2023-04-25T14:25:37;22.75;20.05
79140;HTU21D;68546;59.142;37.948;2023-04-25T14:28:04;22.72;19.93
79140;HTU21D;68546;59.142;37.948;2023-04-25T14:30:32;22.70;19.83
79140;HTU21D;68546;59.142;37.948;2023-04-25T14:32:59;22.68;19.85
79140;HTU21D;68546;59.142;37.948;2023-04-25T14:35:27;22.65;19.66
79140;HTU21D;68546;59.142;37.948;2023-04-25T14:37:54;22.63;19.37
79140;HTU21D;68546;59.142;37.948;2023-04-25T14:40:20;22.61;19.27
79140;HTU21D;68546;59.142;37.948;2023-04-25T14:42:49;22.57;19.24
79140;HTU21D;68546;59.142;37.948;2023-04-25T14:45:17;22.56;19.23
79140;HTU21D;68546;59.142;37.948;2023-04-25T14:47:43;22.51;19.18
79140;HTU21D;68546;59.142;37.948;2023-04-25T14:50:10;22.50;19.28
79140;HTU21D;68546;59.142;37.948;2023-04-25T14:52:36;22.48;19.32
79140;HTU21D;68546;59.142;37.948;2023-04-25T14:55:03;22.43;19.37
79140;HTU21D;68546;59.142;37.948;2023-04-25T14:57:33;22.40;19.35
79140;HTU21D;68546;59.142;37.948;2023-04-25T15:00:00;22.37;19.37
79140;HTU21D;68546;59.142;37.948;2023-04-25T15:02:28;22.33;19.69
79140;HTU21D;68546;59.142;37.948;2023-04-25T15:04:54;22.28;19.69
79140;HTU21D;68546;59.142;37.948;2023-04-25T15:07:21;22.24;19.57
79140;HTU21D;68546;59.142;37.948;2023-04-25T15:09:48;22.20;19.63
79140;HTU21D;68546;59.142;37.948;2023-04-25T15:12:14;22.17;19.81
79140;HTU21D;68546;59.142;37.948;2023-04-25T15:14:41;22.12;19.94
79140;HTU21D;68546;59.142;37.948;2023-04-25T15:17:08;22.07;20.04
79140;HTU21D;68546;59.142;37.948;2023-04-25T15:19:34;22.02;20.15
79140;HTU21D;68546;59.142;37.948;2023-04-25T15:22:01;21.95;20.29
79140;HTU21D;68546;59.142;37.948;2023-04-25T15:24:29;21.91;20.34
79140;HTU21D;68546;59.142;37.948;2023-04-25T15:26:55;21.87;20.46